Honeywell Corners, New York
Current Conditions -  °F | °C
As of 9:15 AM on Friday 24 Oct 2014 (Local Time) from KNY0 Reporting Station
Overcast Overcast  
Wind Chill: 38°   Ceiling: 2300
Heat Index: 43°   Visibility: 10mi
Dew Point: 41°   Wind: 8mph
Humidity: 93%   Direction: 280°W
Pressure: 29.86"   Gusts: NA
Location:  43.0744°N, 74.1473°W
Report Text: KNY0 241315Z AUTO 28007KT 10SM OVC023 06/05 A2986 RMK AO2 T00620052
Loading
Personal Weather Stations






























Interactive Weather Map
Tropical Storm Tracking
New forecast layout! Learn more

10-Day Weather Forecast

Advertisements
Track Severe Weather on mobile